Terminal Aerodrome Forecast
Issued by NWS Louisville, KY

Home | Current Version | Previous Version | Text Only | Print | Product List | Glossary On
Versions: 1 2 3 4 5 6 7 8 9 10 11 12 13 14 15 16 17 18 19 20 21 22
000
FTUS43 KLMK 290100 AAA
TAFLEX
TAF AMD
KLEX 290125Z 2901/2924 VRB03KT P6SM SCT040 BKN250
     FM290600 00000KT 4SM BR SCT250
      TEMPO 2909/2913 2SM BR
     FM291400 30005KT P6SM SCT040 SCT250 PROB30 2922/2924 3SM -TSRA
      BKN025CB=

USA.gov is the U.S. government's official web portal to all federal, state and local government web resources and services.